Time;durP1;ratioP1;P1;durP2;ratioP2;P2;SDS_P1;SDS_P2;PMS_P1;PMS_P2;Temp;Humidity;BMP_temperature;BMP_pressure;BME280_temperature;BME280_humidity;BME280_pressure;Samples;Min_cycle;Max_cycle;Signal;HPM_P1;HPM_P2
2023/05/08 00:01:01;;;;;;;6.00;2.40;;;;;;;10.91;37.24;101476.64;107016;1257;62710;-53
2023/05/08 00:03:28;;;;;;;5.70;2.10;;;;;;;10.91;37.15;101481.21;107843;1255;66013;-53
2023/05/08 00:05:55;;;;;;;5.50;2.30;;;;;;;10.92;37.21;101486.43;104676;1253;62631;-52
2023/05/08 00:08:22;;;;;;;5.70;2.50;;;;;;;10.92;36.90;101486.20;104667;1251;60489;-52
2023/05/08 00:10:49;;;;;;;4.80;2.10;;;;;;;10.91;36.92;101494.89;104748;1251;74393;-51
2023/05/08 00:13:16;;;;;;;6.70;2.60;;;;;;;10.90;36.93;101497.04;104639;1257;62634;-52
2023/05/08 00:15:43;;;;;;;6.20;2.60;;;;;;;10.89;37.08;101493.95;104634;1257;66868;-51
2023/05/08 00:18:10;;;;;;;5.50;2.30;;;;;;;10.88;37.29;101494.94;104591;1254;60543;-53
2023/05/08 00:20:37;;;;;;;7.40;2.50;;;;;;;10.87;37.77;101497.07;105045;1257;61115;-52
2023/05/08 00:23:04;;;;;;;7.40;2.50;;;;;;;10.87;37.44;101495.52;106030;1251;63881;-53
2023/05/08 00:25:31;;;;;;;5.40;2.30;;;;;;;10.85;37.27;101495.84;104878;1257;63820;-55
2023/05/08 00:27:58;;;;;;;5.90;2.50;;;;;;;10.82;37.58;101493.75;106244;1255;66364;-53
2023/05/08 00:30:26;;;;;;;6.90;2.00;;;;;;;10.78;37.76;101498.69;105423;1259;60517;-53
2023/05/08 00:32:53;;;;;;;4.70;2.20;;;;;;;10.76;38.07;101501.64;104950;1252;60438;-52
2023/05/08 00:35:20;;;;;;;8.20;2.40;;;;;;;10.73;37.77;101497.42;105597;1257;66437;-53
2023/05/08 00:37:47;;;;;;;5.90;2.50;;;;;;;10.70;37.63;101500.08;104874;1254;63868;-54
2023/05/08 00:40:14;;;;;;;8.10;2.20;;;;;;;10.67;38.00;101499.41;105007;1257;66129;-54
2023/05/08 00:42:41;;;;;;;5.50;2.40;;;;;;;10.64;38.07;101497.52;104746;1253;60677;-53
2023/05/08 00:45:09;;;;;;;8.60;2.70;;;;;;;10.61;37.98;101500.61;108717;1251;58396;-54
2023/05/08 00:47:36;;;;;;;8.10;2.20;;;;;;;10.59;38.00;101501.61;105066;1253;67398;-54
2023/05/08 00:50:04;;;;;;;7.20;2.70;;;;;;;10.57;38.08;101505.08;104745;1257;62591;-53
2023/05/08 00:52:31;;;;;;;4.50;2.20;;;;;;;10.56;38.00;101508.82;105409;1250;64965;-54
2023/05/08 00:55:00;;;;;;;5.50;2.30;;;;;;;10.57;37.88;101512.98;107101;1251;60416;-54
2023/05/08 00:57:31;;;;;;;6.30;2.40;;;;;;;10.58;38.08;101512.38;107226;1254;59688;-54
2023/05/08 00:59:59;;;;;;;5.00;2.20;;;;;;;10.59;38.08;101509.67;105222;1258;67626;-54
2023/05/08 01:02:26;;;;;;;6.60;2.10;;;;;;;10.60;37.63;101512.44;105302;1254;64241;-55
2023/05/08 01:04:53;;;;;;;5.50;2.20;;;;;;;10.59;37.53;101511.31;106806;1254;66233;-54
2023/05/08 01:07:20;;;;;;;4.80;2.10;;;;;;;10.59;37.65;101509.54;105249;1258;60571;-54
2023/05/08 01:09:47;;;;;;;6.20;2.50;;;;;;;10.59;37.81;101510.55;105339;1257;60512;-53
2023/05/08 01:12:15;;;;;;;5.40;2.00;;;;;;;10.59;38.52;101505.67;105152;1257;68076;-53
2023/05/08 01:14:54;;;;;;;6.10;1.80;;;;;;;10.59;38.25;101504.98;105547;1253;63737;-53
2023/05/08 01:17:44;;;;;;;5.90;2.50;;;;;;;10.58;38.28;101510.30;106887;1256;66012;-53
2023/05/08 01:20:16;;;;;;;5.90;2.70;;;;;;;10.57;38.72;101507.20;105453;1252;60483;-53
2023/05/08 01:23:05;;;;;;;6.50;2.60;;;;;;;10.56;38.54;101507.76;105384;1257;60562;-53
2023/05/08 01:25:50;;;;;;;6.70;3.00;;;;;;;10.54;38.58;101513.17;105316;1255;68075;-53
2023/05/08 01:28:36;;;;;;;4.70;2.00;;;;;;;10.52;39.16;101514.17;105340;1253;63611;-53
2023/05/08 01:31:21;;;;;;;3.90;1.10;;;;;;;10.50;39.13;101519.36;105221;1255;65255;-54
2023/05/08 01:33:55;;;;;;;9.60;2.90;;;;;;;10.47;38.78;101521.34;105317;1250;60492;-54
2023/05/08 01:36:43;;;;;;;6.40;2.80;;;;;;;10.44;38.98;101518.03;105244;1258;60448;-53
2023/05/08 01:39:33;;;;;;;5.30;2.40;;;;;;;10.40;38.72;101519.27;106345;1253;67326;-53
2023/05/08 01:42:03;;;;;;;5.40;2.20;;;;;;;10.38;38.57;101523.77;107975;1251;64017;-53
2023/05/08 01:44:40;;;;;;;5.30;2.40;;;;;;;10.37;38.82;101525.11;105687;1253;65639;-53
2023/05/08 01:47:08;;;;;;;5.80;2.20;;;;;;;10.35;38.58;101529.77;105035;1253;60594;-53
2023/05/08 01:49:46;;;;;;;5.10;2.10;;;;;;;10.33;38.53;101530.04;106849;1254;60351;-53
2023/05/08 01:52:31;;;;;;;5.60;2.40;;;;;;;10.34;38.71;101532.66;105052;1257;67441;-53
2023/05/08 01:55:00;;;;;;;6.20;2.80;;;;;;;10.33;38.84;101530.73;104812;1257;62911;-52
2023/05/08 01:57:28;;;;;;;5.00;2.50;;;;;;;10.33;38.69;101531.10;105705;1256;66243;-53
2023/05/08 01:59:55;;;;;;;5.90;2.70;;;;;;;10.32;38.58;101530.45;106025;1253;60502;-53
2023/05/08 02:02:22;;;;;;;5.00;2.50;;;;;;;10.31;38.31;101531.77;105425;1257;62260;-54
2023/05/08 02:04:49;;;;;;;5.50;2.40;;;;;;;10.29;38.66;101531.86;105597;1251;65964;-53
2023/05/08 02:07:19;;;;;;;5.80;2.70;;;;;;;10.27;38.59;101535.13;107533;1255;62693;-53
2023/05/08 02:09:46;;;;;;;5.30;2.40;;;;;;;10.25;38.48;101539.11;105267;1256;66028;-54
2023/05/08 02:12:13;;;;;;;6.10;3.00;;;;;;;10.25;38.77;101540.73;105019;1262;60532;-53
2023/05/08 02:14:40;;;;;;;5.50;2.50;;;;;;;10.23;38.84;101543.95;105269;1251;60572;-54
2023/05/08 02:17:08;;;;;;;5.50;2.50;;;;;;;10.21;38.41;101543.52;105629;1257;67003;-53
2023/05/08 02:19:35;;;;;;;4.90;2.30;;;;;;;10.19;38.74;101547.73;105237;1260;62530;-53
2023/05/08 02:22:02;;;;;;;5.60;2.30;;;;;;;10.16;38.91;101552.60;105338;1257;66398;-53
2023/05/08 02:24:29;;;;;;;5.10;2.40;;;;;;;10.14;39.00;101554.46;105138;1254;59630;-53
2023/05/08 02:26:56;;;;;;;5.90;2.50;;;;;;;10.13;38.82;101553.86;107433;1250;60463;-53
2023/05/08 02:29:23;;;;;;;5.70;2.80;;;;;;;10.12;38.92;101553.39;105221;1253;66377;-53
2023/05/08 02:31:51;;;;;;;6.40;2.20;;;;;;;10.11;39.14;101556.05;105270;1250;64234;-52
2023/05/08 02:34:18;;;;;;;5.60;2.50;;;;;;;10.10;39.05;101551.05;105272;1253;67605;-55
2023/05/08 02:36:45;;;;;;;4.80;2.10;;;;;;;10.07;39.01;101558.25;105436;1253;60515;-55
2023/05/08 02:39:12;;;;;;;5.00;2.50;;;;;;;10.04;38.92;101560.15;105019;1259;62282;-52
2023/05/08 02:41:39;;;;;;;5.20;2.30;;;;;;;10.03;39.00;101559.52;106699;1250;67367;-53
2023/05/08 02:44:07;;;;;;;5.60;2.50;;;;;;;10.02;39.22;101567.48;104584;1253;66223;-54
2023/05/08 02:46:40;;;;;;;6.80;2.80;;;;;;;10.00;39.29;101568.09;105216;1256;66375;-55
2023/05/08 02:49:27;;;;;;;5.10;2.20;;;;;;;10.00;39.56;101572.81;108947;1253;59472;-52
2023/05/08 02:52:23;;;;;;;7.90;2.60;;;;;;;10.01;39.34;101575.23;105925;1253;60605;-53
2023/05/08 02:54:57;;;;;;;5.20;2.50;;;;;;;10.01;39.41;101575.45;105303;1254;67274;-53
2023/05/08 02:57:36;;;;;;;8.00;2.70;;;;;;;10.01;39.61;101576.31;109072;1251;64279;-53
2023/05/08 03:00:15;;;;;;;6.40;2.50;;;;;;;10.01;39.81;101576.84;105587;1258;66047;-53
2023/05/08 03:02:43;;;;;;;5.90;2.70;;;;;;;10.02;39.71;101580.60;106227;1258;60430;-54
2023/05/08 03:05:25;;;;;;;5.10;2.70;;;;;;;10.02;39.93;101580.61;105605;1256;60445;-54
2023/05/08 03:07:53;;;;;;;7.50;2.70;;;;;;;10.03;39.40;101581.42;107923;1250;67735;-55
2023/05/08 03:10:21;;;;;;;6.00;2.50;;;;;;;10.05;39.36;101588.17;106703;1259;63526;-55
2023/05/08 03:12:48;;;;;;;6.40;2.80;;;;;;;10.06;39.71;101593.02;109029;1250;66714;-55
2023/05/08 03:15:23;;;;;;;6.00;2.30;;;;;;;10.08;39.75;101592.21;108995;1252;59819;-54
2023/05/08 03:17:52;;;;;;;6.10;2.80;;;;;;;10.10;39.61;101595.77;108868;1251;59073;-55
2023/05/08 03:20:19;;;;;;;4.40;2.20;;;;;;;10.12;39.51;101597.72;108905;1253;67276;-54
2023/05/08 03:22:47;;;;;;;6.40;2.70;;;;;;;10.15;39.27;101599.34;108896;1252;63949;-54
2023/05/08 03:25:15;;;;;;;5.40;2.40;;;;;;;10.16;39.13;101603.45;109048;1250;66252;-55
2023/05/08 03:27:43;;;;;;;5.20;2.40;;;;;;;10.18;39.51;101607.23;106957;1252;61299;-54
2023/05/08 03:30:10;;;;;;;6.50;2.50;;;;;;;10.19;39.14;101604.51;106198;1255;60322;-54
2023/05/08 03:32:40;;;;;;;5.70;2.30;;;;;;;10.20;39.09;101608.10;107819;1253;66962;-54
2023/05/08 03:35:08;;;;;;;4.70;2.30;;;;;;;10.21;39.10;101610.86;105172;1253;72260;-53
2023/05/08 03:37:35;;;;;;;7.00;2.30;;;;;;;10.22;39.13;101615.73;105249;1255;65064;-52
2023/05/08 03:40:02;;;;;;;5.40;2.40;;;;;;;10.21;39.06;101614.70;105237;1253;60531;-55
2023/05/08 03:42:29;;;;;;;5.70;2.80;;;;;;;10.21;38.84;101616.33;105725;1253;60508;-52
2023/05/08 03:44:56;;;;;;;8.20;2.60;;;;;;;10.19;38.63;101620.64;106081;1253;67489;-53
2023/05/08 03:47:24;;;;;;;7.30;2.70;;;;;;;10.17;38.74;101621.62;106681;1253;63560;-53
2023/05/08 03:49:52;;;;;;;5.80;2.60;;;;;;;10.17;39.29;101628.13;106531;1253;66310;-53
2023/05/08 03:52:19;;;;;;;6.60;2.60;;;;;;;10.18;39.06;101632.94;104564;1253;60318;-53
2023/05/08 03:54:46;;;;;;;9.00;3.00;;;;;;;10.19;38.74;101636.06;105119;1256;60401;-54
2023/05/08 03:57:13;;;;;;;6.10;2.50;;;;;;;10.20;39.04;101632.70;105246;1258;66843;-54
2023/05/08 04:00:05;;;;;;;7.20;2.60;;;;;;;10.22;39.04;101635.90;106215;1253;63809;-54
2023/05/08 04:02:49;;;;;;;5.30;2.60;;;;;;;10.25;39.46;101637.15;106246;1257;66200;-54
2023/05/08 04:05:30;;;;;;;7.20;2.60;;;;;;;10.26;39.38;101639.36;105308;1253;60550;-53
2023/05/08 04:08:08;;;;;;;6.10;2.60;;;;;;;10.28;39.25;101644.19;108897;1255;58222;-55
2023/05/08 04:10:39;;;;;;;5.50;2.40;;;;;;;10.30;39.22;101645.45;105431;1253;67591;-54
2023/05/08 04:13:12;;;;;;;5.60;2.60;;;;;;;10.34;39.37;101647.88;107634;1251;63774;-54
2023/05/08 04:16:00;;;;;;;4.40;1.60;;;;;;;10.38;38.89;101651.12;105390;1253;66003;-53
2023/05/08 04:18:28;;;;;;;5.70;2.70;;;;;;;10.43;38.66;101654.22;107336;1253;60559;-54
2023/05/08 04:20:57;;;;;;;5.90;3.30;;;;;;;10.45;38.85;101653.76;105243;1257;60346;-53
2023/05/08 04:23:26;;;;;;;6.00;2.40;;;;;;;10.47;38.66;101653.79;106816;1256;75260;-53
2023/05/08 04:25:53;;;;;;;5.80;2.60;;;;;;;10.47;38.79;101656.78;107184;1257;62504;-53
2023/05/08 04:28:21;;;;;;;6.00;2.90;;;;;;;10.47;38.73;101662.40;109005;1253;66491;-52
2023/05/08 04:30:48;;;;;;;6.50;2.60;;;;;;;10.48;38.72;101661.80;106703;1259;60397;-51
2023/05/08 04:33:17;;;;;;;5.90;2.60;;;;;;;10.49;38.28;101665.41;105314;1259;60947;-53
2023/05/08 04:35:47;;;;;;;7.40;2.80;;;;;;;10.52;38.89;101667.84;106125;1253;67327;-53
2023/05/08 04:38:14;;;;;;;7.60;2.90;;;;;;;10.57;38.62;101668.48;105191;1257;63685;-53
2023/05/08 04:40:41;;;;;;;5.70;2.90;;;;;;;10.60;38.72;101673.88;107775;1253;66271;-53
2023/05/08 04:43:09;;;;;;;6.30;2.60;;;;;;;10.64;38.41;101676.67;108974;1256;59353;-53
2023/05/08 04:45:36;;;;;;;7.40;3.00;;;;;;;10.68;38.37;101675.52;108988;1251;58265;-53
2023/05/08 04:48:04;;;;;;;6.10;2.90;;;;;;;10.74;38.54;101672.36;108935;1251;67018;-53
2023/05/08 04:50:31;;;;;;;9.80;3.00;;;;;;;10.80;38.16;101671.98;108994;1253;63887;-53
2023/05/08 04:52:58;;;;;;;5.60;2.90;;;;;;;10.84;38.04;101675.06;108125;1252;74783;-55
2023/05/08 04:55:25;;;;;;;7.60;2.70;;;;;;;10.88;37.99;101670.84;105420;1253;60559;-53
2023/05/08 04:57:52;;;;;;;7.90;2.80;;;;;;;10.93;37.91;101669.48;105190;1258;60377;-53
2023/05/08 05:00:19;;;;;;;6.70;3.10;;;;;;;10.98;37.97;101672.34;105326;1252;67696;-53
2023/05/08 05:02:47;;;;;;;7.60;3.00;;;;;;;11.01;37.30;101671.64;105276;1255;70453;-53
2023/05/08 05:05:14;;;;;;;8.70;2.90;;;;;;;11.00;37.48;101675.19;105198;1253;64864;-53
2023/05/08 05:07:41;;;;;;;5.50;2.60;;;;;;;11.00;37.69;101675.90;107562;1254;61130;-54
2023/05/08 05:10:09;;;;;;;7.90;2.90;;;;;;;11.01;37.58;101675.83;104982;1253;60341;-54
2023/05/08 05:12:36;;;;;;;7.10;3.10;;;;;;;11.02;37.81;101678.39;107760;1253;67543;-54
2023/05/08 05:15:04;;;;;;;5.80;2.70;;;;;;;11.03;37.83;101677.23;108982;1253;63526;-54
2023/05/08 05:17:32;;;;;;;7.10;2.90;;;;;;;11.08;37.88;101675.56;107235;1255;66195;-53
2023/05/08 05:19:59;;;;;;;6.90;3.10;;;;;;;11.15;37.97;101676.52;105257;1253;60447;-52
2023/05/08 05:22:27;;;;;;;7.60;2.90;;;;;;;11.21;37.24;101677.94;105261;1258;60378;-53
2023/05/08 05:24:55;;;;;;;5.40;3.00;;;;;;;11.23;37.32;101681.66;105255;1253;66257;-53
2023/05/08 05:27:23;;;;;;;6.10;3.20;;;;;;;11.26;37.94;101683.27;109044;1253;63963;-54
2023/05/08 05:29:50;;;;;;;5.90;2.80;;;;;;;11.30;37.60;101686.82;108903;1258;66179;-53
2023/05/08 05:32:17;;;;;;;5.50;2.60;;;;;;;11.36;37.56;101690.02;109074;1251;58223;-53
2023/05/08 05:34:44;;;;;;;7.90;2.70;;;;;;;11.42;37.23;101688.56;106182;1257;60481;-53
2023/05/08 05:37:11;;;;;;;6.50;3.00;;;;;;;11.51;37.32;101688.02;105304;1258;69562;-53
2023/05/08 05:39:38;;;;;;;6.70;2.50;;;;;;;11.56;37.14;101691.40;105275;1257;63860;-52
2023/05/08 05:42:05;;;;;;;6.50;2.80;;;;;;;11.57;37.01;101693.41;105260;1253;66363;-53
2023/05/08 05:44:32;;;;;;;6.50;2.90;;;;;;;11.58;36.97;101695.11;105328;1253;60635;-53
2023/05/08 05:46:59;;;;;;;6.30;2.90;;;;;;;11.58;36.86;101692.31;105210;1259;60458;-53
2023/05/08 05:49:26;;;;;;;9.10;3.00;;;;;;;11.56;36.44;101694.73;105239;1252;66653;-52
2023/05/08 05:51:53;;;;;;;6.90;3.20;;;;;;;11.52;36.62;101694.40;105312;1258;64118;-53
2023/05/08 05:54:20;;;;;;;6.60;2.70;;;;;;;11.51;36.98;101691.53;105402;1253;66142;-54
2023/05/08 05:56:48;;;;;;;6.70;3.00;;;;;;;11.56;37.35;101690.87;105130;1253;61300;-56
2023/05/08 05:59:15;;;;;;;8.80;2.70;;;;;;;11.62;37.48;101688.54;104998;1253;58985;-56
2023/05/08 06:01:42;;;;;;;18.80;3.10;;;;;;;11.67;36.84;101691.17;104740;1257;65761;-54
2023/05/08 06:04:10;;;;;;;6.10;2.70;;;;;;;11.71;36.75;101690.26;104812;1254;63862;-54
2023/05/08 06:06:38;;;;;;;7.80;3.40;;;;;;;11.77;37.21;101692.88;104787;1253;66143;-52
2023/05/08 06:09:05;;;;;;;6.40;3.10;;;;;;;11.82;36.67;101691.13;104572;1253;60451;-54
2023/05/08 06:11:33;;;;;;;7.00;3.30;;;;;;;11.86;36.63;101696.14;108849;1252;58141;-55
2023/05/08 06:13:59;;;;;;;6.70;2.90;;;;;;;11.93;36.40;101693.08;109047;1252;67562;-54
2023/05/08 06:16:27;;;;;;;5.50;2.50;;;;;;;12.01;36.75;101692.23;108994;1253;62601;-54
2023/05/08 06:18:54;;;;;;;11.00;3.10;;;;;;;12.10;36.63;101690.23;108983;1251;66871;-54
2023/05/08 06:21:21;;;;;;;7.10;3.00;;;;;;;12.18;36.45;101690.05;108950;1253;58321;-53
2023/05/08 06:23:48;;;;;;;5.40;2.60;;;;;;;12.22;36.12;101687.35;106847;1257;60553;-54
2023/05/08 06:26:15;;;;;;;8.50;3.00;;;;;;;12.23;35.89;101686.90;105291;1257;67099;-53
2023/05/08 06:28:42;;;;;;;6.60;3.10;;;;;;;12.26;36.20;101686.52;105274;1257;63726;-52
2023/05/08 06:31:09;;;;;;;6.90;3.10;;;;;;;12.32;35.69;101687.21;105362;1253;66249;-53
2023/05/08 06:33:36;;;;;;;4.70;2.70;;;;;;;12.34;35.59;101685.30;105276;1253;61437;-54
2023/05/08 06:36:06;;;;;;;6.80;2.60;;;;;;;12.38;36.15;101683.07;108990;1253;58179;-54
2023/05/08 06:38:33;;;;;;;6.80;2.70;;;;;;;12.47;35.89;101683.60;106578;1259;66998;-53
2023/05/08 06:40:59;;;;;;;8.80;3.20;;;;;;;12.54;36.18;101686.80;106725;1257;63835;-56
2023/05/08 06:43:27;;;;;;;6.50;3.20;;;;;;;12.64;36.34;101686.65;105978;1254;65193;-53
2023/05/08 06:45:54;;;;;;;8.30;3.10;;;;;;;12.74;36.07;101688.92;105293;1253;60486;-52
2023/05/08 06:48:21;;;;;;;6.50;3.00;;;;;;;12.83;35.72;101687.61;105394;1256;59539;-55
2023/05/08 06:50:49;;;;;;;5.40;2.70;;;;;;;12.89;34.86;101687.08;105423;1253;67183;-52
2023/05/08 06:53:16;;;;;;;6.10;3.30;;;;;;;12.89;34.87;101687.73;105276;1259;64190;-53
2023/05/08 06:55:43;;;;;;;5.80;3.20;;;;;;;12.92;34.77;101687.92;104899;1259;66325;-52
2023/05/08 06:58:10;;;;;;;6.10;3.40;;;;;;;12.95;34.81;101689.59;105734;1253;61008;-55
2023/05/08 07:00:37;;;;;;;7.50;3.20;;;;;;;13.02;34.83;101689.86;104947;1253;60577;-54
2023/05/08 07:03:04;;;;;;;6.10;2.90;;;;;;;13.09;34.80;101691.52;105661;1256;67818;-53
2023/05/08 07:05:31;;;;;;;6.00;2.90;;;;;;;13.14;34.24;101687.41;105244;1253;66222;-54
2023/05/08 07:07:58;;;;;;;6.60;3.10;;;;;;;13.17;33.79;101685.80;106412;1253;68458;-54
2023/05/08 07:10:25;;;;;;;8.30;2.90;;;;;;;13.17;34.41;101686.98;104926;1253;60477;-51
2023/05/08 07:12:53;;;;;;;6.10;3.20;;;;;;;13.21;34.58;101688.70;105036;1253;60351;-53
2023/05/08 07:15:20;;;;;;;6.60;3.00;;;;;;;13.28;34.53;101684.00;104973;1259;67032;-53
2023/05/08 07:17:52;;;;;;;6.80;3.00;;;;;;;13.35;34.44;101683.00;104724;1256;64657;-54
2023/05/08 07:20:20;;;;;;;7.00;2.80;;;;;;;13.40;34.60;101683.02;106450;1256;64906;-53
2023/05/08 07:22:47;;;;;;;6.40;2.70;;;;;;;13.43;34.00;101682.09;104831;1253;60563;-53
2023/05/08 07:25:14;;;;;;;7.40;3.60;;;;;;;13.48;34.07;101678.20;104770;1259;60484;-55
2023/05/08 07:27:42;;;;;;;6.60;3.10;;;;;;;13.54;33.08;101678.27;104803;1257;66993;-56
2023/05/08 07:30:09;;;;;;;5.90;2.90;;;;;;;13.57;32.98;101677.73;104845;1259;62638;-54
2023/05/08 07:32:38;;;;;;;6.80;3.00;;;;;;;13.60;33.51;101675.09;106041;1253;65267;-53
2023/05/08 07:35:08;;;;;;;6.60;2.70;;;;;;;13.63;33.26;101670.77;104848;1257;62241;-54
2023/05/08 07:37:39;;;;;;;7.60;3.40;;;;;;;13.65;32.82;101674.48;107488;1253;60444;-54
2023/05/08 07:40:07;;;;;;;6.50;3.20;;;;;;;13.69;32.58;101675.64;106910;1259;67337;-54
2023/05/08 07:42:40;;;;;;;7.90;3.00;;;;;;;13.74;32.34;101674.70;105283;1251;63683;-52
2023/05/08 07:45:08;;;;;;;6.80;2.80;;;;;;;13.88;32.96;101676.04;108655;1253;65891;-53
2023/05/08 08:01:13;;;;;;;6.90;3.20;;;;;;;14.48;31.91;101672.17;102723;1285;604186;-52
2023/05/08 08:03:40;;;;;;;8.20;2.80;;;;;;;14.95;29.77;101666.20;103921;1272;106539;-51
2023/05/08 08:06:07;;;;;;;6.40;3.30;;;;;;;14.85;29.87;101668.06;104219;1265;59257;-51
2023/05/08 08:08:34;;;;;;;6.40;2.90;;;;;;;14.73;30.04;101661.17;104152;1269;66031;-52
2023/05/08 08:11:01;;;;;;;5.80;2.90;;;;;;;14.60;29.86;101671.49;104752;1264;73110;-54
2023/05/08 08:13:29;;;;;;;5.90;2.70;;;;;;;14.55;29.33;101668.36;108276;1263;65114;-51
2023/05/08 08:15:57;;;;;;;6.80;3.10;;;;;;;14.49;28.56;101668.97;104763;1267;59270;-53
2023/05/08 08:18:24;;;;;;;6.80;2.50;;;;;;;14.43;28.96;101668.41;108176;1264;57635;-54
2023/05/08 08:20:51;;;;;;;7.70;2.90;;;;;;;14.39;29.69;101675.92;104828;1267;65451;-56
2023/05/08 08:23:18;;;;;;;6.80;2.80;;;;;;;14.42;29.48;101674.98;105081;1267;64084;-56
2023/05/08 08:25:45;;;;;;;9.50;3.30;;;;;;;14.51;29.60;101674.88;104037;1267;68473;-55
2023/05/08 08:28:11;;;;;;;4.90;2.30;;;;;;;14.62;29.94;101670.87;104045;1269;60780;-55
2023/05/08 08:30:38;;;;;;;6.50;2.60;;;;;;;14.71;29.80;101675.45;108176;1269;57637;-55
2023/05/08 08:33:06;;;;;;;5.80;2.70;;;;;;;14.77;29.12;101670.46;108251;1264;66598;-53
2023/05/08 08:35:33;;;;;;;7.20;2.90;;;;;;;14.76;29.11;101668.55;108339;1263;63834;-54
2023/05/08 08:37:59;;;;;;;4.70;2.20;;;;;;;14.79;29.10;101673.42;108348;1264;65077;-53
2023/05/08 08:40:27;;;;;;;7.20;2.50;;;;;;;14.86;28.57;101670.95;108339;1267;57652;-53
2023/05/08 08:42:54;;;;;;;6.50;2.30;;;;;;;14.97;28.85;101669.79;104775;1267;61060;-54
2023/05/08 08:45:21;;;;;;;6.10;2.70;;;;;;;15.07;28.53;101669.47;104040;1272;66286;-56
2023/05/08 08:47:48;;;;;;;6.80;2.70;;;;;;;15.17;28.44;101666.59;104219;1269;63857;-56
2023/05/08 08:50:15;;;;;;;5.30;2.40;;;;;;;15.26;28.15;101668.18;104428;1267;66135;-56
2023/05/08 08:52:57;;;;;;;6.10;2.80;;;;;;;15.34;28.26;101665.26;104314;1271;59536;-56
2023/05/08 08:55:24;;;;;;;5.10;2.10;;;;;;;15.46;28.51;101663.75;104210;1267;59865;-53
2023/05/08 08:57:54;;;;;;;5.20;2.30;;;;;;;15.58;28.55;101661.59;103983;1267;66642;-54
2023/05/08 09:00:22;;;;;;;5.50;2.70;;;;;;;15.67;28.19;101661.05;103961;1266;63754;-53
2023/05/08 09:02:49;;;;;;;5.70;2.50;;;;;;;15.78;28.17;101658.25;108258;1267;66335;-55
2023/05/08 09:05:16;;;;;;;5.50;2.50;;;;;;;15.90;27.74;101653.84;108232;1266;57460;-54
2023/05/08 09:07:43;;;;;;;5.60;2.30;;;;;;;15.95;27.57;101659.44;108229;1266;59803;-56
2023/05/08 09:10:14;;;;;;;8.10;2.90;;;;;;;15.93;26.82;101659.14;108241;1266;66711;-53
2023/05/08 09:12:41;;;;;;;7.00;2.90;;;;;;;15.86;27.06;101662.38;108176;1267;62722;-52
2023/05/08 09:15:08;;;;;;;6.00;2.50;;;;;;;15.84;27.87;101661.29;108219;1266;66137;-55
2023/05/08 09:17:35;;;;;;;8.70;2.60;;;;;;;15.90;28.32;101656.55;107176;1267;59687;-54
2023/05/08 09:20:02;;;;;;;6.80;2.70;;;;;;;15.95;28.12;101658.21;103996;1269;59541;-54
2023/05/08 09:22:30;;;;;;;6.70;2.80;;;;;;;15.98;28.23;101658.16;104835;1266;66333;-54
2023/05/08 09:24:58;;;;;;;7.00;2.60;;;;;;;16.00;28.37;101655.52;104231;1264;64357;-54
2023/05/08 09:27:26;;;;;;;6.00;2.50;;;;;;;16.04;28.50;101658.05;104314;1263;66488;-57
2023/05/08 09:30:03;;;;;;;6.40;2.90;;;;;;;16.07;27.92;101653.16;104231;1264;60676;-52
2023/05/08 09:32:31;;;;;;;7.00;2.70;;;;;;;16.09;27.70;101651.95;104250;1266;59577;-54
2023/05/08 09:34:59;;;;;;;6.60;2.80;;;;;;;16.07;27.55;101652.11;107523;1263;66443;-54
2023/05/08 09:37:26;;;;;;;5.60;2.60;;;;;;;16.01;27.81;101656.30;106633;1263;64036;-56
2023/05/08 09:39:53;;;;;;;6.50;2.80;;;;;;;16.02;27.51;101655.33;104845;1266;66168;-55
2023/05/08 09:42:22;;;;;;;6.10;3.20;;;;;;;16.04;27.37;101654.27;104208;1266;59774;-56
2023/05/08 09:44:52;;;;;;;5.20;2.90;;;;;;;16.07;27.78;101653.55;104263;1263;60005;-58
2023/05/08 09:47:23;;;;;;;6.10;2.60;;;;;;;16.08;27.13;101652.08;106787;1263;65468;-57
2023/05/08 09:50:08;;;;;;;5.60;2.90;;;;;;;16.06;26.97;101650.04;104945;1264;63762;-56
2023/05/08 09:52:36;;;;;;;5.70;2.50;;;;;;;16.09;27.48;101651.58;106360;1263;66203;-57
2023/05/08 09:55:08;;;;;;;5.30;2.20;;;;;;;16.17;27.62;101648.83;104659;1264;59617;-56
2023/05/08 09:57:38;;;;;;;5.70;2.60;;;;;;;16.22;27.74;101645.86;104249;1263;59653;-56
2023/05/08 10:00:07;;;;;;;5.40;2.40;;;;;;;16.31;27.88;101643.40;106441;1266;65386;-56
2023/05/08 10:02:37;;;;;;;5.60;2.70;;;;;;;16.41;27.84;101641.83;104288;1264;63702;-56
2023/05/08 10:05:25;;;;;;;6.50;2.80;;;;;;;16.48;27.18;101641.20;104310;1260;65886;-50
2023/05/08 10:07:53;;;;;;;6.60;2.60;;;;;;;16.51;26.63;101643.85;108604;1257;57486;-56
2023/05/08 10:10:27;;;;;;;5.90;2.60;;;;;;;16.54;26.80;101639.34;105942;1257;59157;-53
2023/05/08 10:12:54;;;;;;;6.20;2.30;;;;;;;16.60;26.97;101637.71;108631;1259;66522;-55
2023/05/08 10:15:28;;;;;;;6.60;2.50;;;;;;;16.69;26.98;101633.23;107805;1263;63707;-55
2023/05/08 10:18:05;;;;;;;6.60;2.60;;;;;;;16.78;26.23;101630.50;104502;1257;68829;-53
2023/05/08 10:20:34;;;;;;;7.30;2.70;;;;;;;16.79;26.19;101623.67;104500;1260;59327;-53
2023/05/08 10:23:02;;;;;;;5.10;2.60;;;;;;;16.72;25.90;101621.80;108705;1254;59339;-51
2023/05/08 10:25:33;;;;;;;5.50;2.70;;;;;;;16.65;26.23;101628.30;104744;1254;67289;-59
2023/05/08 10:28:12;;;;;;;8.90;2.40;;;;;;;16.65;26.48;101626.35;106994;1259;63690;-54
2023/05/08 10:30:43;;;;;;;4.70;2.30;;;;;;;16.72;26.71;101628.42;104796;1258;65523;-56
2023/05/08 10:33:10;;;;;;;7.50;2.50;;;;;;;16.78;26.78;101625.54;105172;1254;59772;-54
2023/05/08 10:35:37;;;;;;;5.00;2.40;;;;;;;16.84;27.14;101628.23;105217;1263;59669;-53
2023/05/08 10:38:04;;;;;;;5.70;2.90;;;;;;;16.85;26.69;101627.82;105110;1254;66536;-53
2023/05/08 10:40:31;;;;;;;8.30;2.90;;;;;;;16.87;26.34;101626.27;105164;1263;63799;-54
2023/05/08 10:42:58;;;;;;;6.80;2.80;;;;;;;16.88;26.39;101627.55;105276;1258;65989;-54
2023/05/08 10:45:25;;;;;;;4.90;2.60;;;;;;;16.89;26.00;101624.27;105127;1257;59666;-53
2023/05/08 10:48:27;;;;;;;4.90;2.10;;;;;;;16.90;26.42;101622.95;106363;1254;59916;-54
2023/05/08 10:51:05;;;;;;;5.40;2.70;;;;;;;16.97;26.28;101624.29;105135;1255;65455;-54
2023/05/08 10:53:35;;;;;;;8.20;2.70;;;;;;;17.02;25.80;101626.82;105214;1262;64136;-54
2023/05/08 10:56:02;;;;;;;5.40;2.60;;;;;;;17.06;25.37;101627.45;105240;1254;65109;-56
2023/05/08 10:58:30;;;;;;;4.90;2.30;;;;;;;17.05;25.89;101628.77;105208;1256;59906;-56
2023/05/08 11:01:04;;;;;;;5.00;2.20;;;;;;;17.06;25.72;101626.02;107542;1254;59646;-56
2023/05/08 11:03:41;;;;;;;4.90;2.00;;;;;;;17.07;25.88;101629.41;106173;1259;66515;-55
2023/05/08 11:06:08;;;;;;;4.30;1.90;;;;;;;17.12;25.99;101628.11;107095;1257;62929;-55
2023/05/08 11:08:45;;;;;;;6.40;2.80;;;;;;;17.20;25.57;101626.14;105238;1257;68552;-56
2023/05/08 11:11:32;;;;;;;6.50;2.40;;;;;;;17.23;24.95;101625.40;106942;1260;59969;-56
2023/05/08 11:14:05;;;;;;;8.60;2.30;;;;;;;17.16;25.27;101634.54;106606;1254;59615;-55
2023/05/08 11:16:55;;;;;;;8.00;2.50;;;;;;;17.11;25.46;101635.67;105663;1254;65501;-55
2023/05/08 11:19:23;;;;;;;5.50;2.20;;;;;;;17.02;24.72;101631.69;105811;1254;63306;-55
2023/05/08 11:22:15;;;;;;;5.80;2.50;;;;;;;16.92;24.93;101630.62;106742;1260;65920;-53
2023/05/08 11:25:04;;;;;;;6.30;2.60;;;;;;;16.80;25.31;101629.27;108268;1254;59132;-54
2023/05/08 11:27:34;;;;;;;4.40;2.00;;;;;;;16.71;25.84;101626.50;105349;1260;59636;-55
2023/05/08 11:30:21;;;;;;;5.80;2.50;;;;;;;16.64;25.04;101624.42;105168;1260;65440;-53
2023/05/08 11:33:03;;;;;;;5.40;2.00;;;;;;;16.57;25.08;101625.59;105150;1257;64432;-55
2023/05/08 11:35:59;;;;;;;5.20;2.00;;;;;;;16.54;25.09;101621.56;105248;1260;66032;-55
2023/05/08 11:38:27;;;;;;;6.30;2.60;;;;;;;16.47;25.11;101620.19;108914;1260;57670;-54
2023/05/08 11:40:57;;;;;;;8.20;2.70;;;;;;;16.41;25.37;101621.84;105982;1258;59730;-53
2023/05/08 11:43:26;;;;;;;8.60;2.60;;;;;;;16.40;25.23;101623.31;105868;1257;66529;-53